Time;durP1;ratioP1;P1;durP2;ratioP2;P2;SDS_P1;SDS_P2;PMS_P1;PMS_P2;Temp;Humidity;BMP_temperature;BMP_pressure;BME280_temperature;BME280_humidity;BME280_pressure;Samples;Min_cycle;Max_cycle;Signal;HPM_P1;HPM_P2
2021/07/09 00:02:06;;;;;;;2.67;2.47;;;22.70;65.00;;;;;;4978635;28;20477;-85
2021/07/09 00:04:32;;;;;;;2.75;2.30;;;22.70;64.90;;;;;;4961683;28;20027;-85
2021/07/09 00:06:58;;;;;;;2.45;2.25;;;22.70;65.20;;;;;;4960995;28;20041;-85
2021/07/09 00:09:25;;;;;;;4.13;3.20;;;22.60;65.10;;;;;;4965467;28;20054;-85
2021/07/09 00:11:52;;;;;;;3.25;2.83;;;22.60;65.30;;;;;;4966942;28;20039;-85
2021/07/09 00:14:22;;;;;;;3.13;2.70;;;22.60;65.70;;;;;;4968600;28;20027;-85
2021/07/09 00:16:49;;;;;;;3.80;2.53;;;22.50;66.10;;;;;;4966743;28;20484;-85
2021/07/09 00:19:15;;;;;;;3.47;2.65;;;22.50;65.80;;;;;;4984612;28;20038;-85
2021/07/09 00:21:41;;;;;;;2.60;2.40;;;22.50;66.00;;;;;;4961894;28;20107;-85
2021/07/09 00:24:08;;;;;;;4.20;2.88;;;22.40;66.10;;;;;;4978371;28;20031;-85
2021/07/09 00:26:34;;;;;;;2.55;2.28;;;22.40;66.60;;;;;;4961074;28;20386;-85
2021/07/09 00:29:01;;;;;;;3.53;2.80;;;22.40;66.80;;;;;;4960769;28;20039;-85
2021/07/09 00:31:31;;;;;;;2.53;2.15;;;22.40;67.50;;;;;;4978680;28;20133;-85
2021/07/09 00:34:01;;;;;;;2.58;2.22;;;22.40;67.60;;;;;;4960702;28;20026;-85
2021/07/09 00:36:27;;;;;;;7.50;2.55;;;22.40;67.40;;;;;;4960677;28;20026;-85
2021/07/09 00:38:53;;;;;;;2.45;2.20;;;22.40;67.30;;;;;;4977887;28;20077;-85
2021/07/09 00:41:20;;;;;;;2.75;2.40;;;22.30;67.10;;;;;;4960507;28;20478;-85
2021/07/09 00:43:46;;;;;;;3.58;2.40;;;22.30;67.10;;;;;;4977829;28;20033;-85
2021/07/09 00:46:12;;;;;;;3.08;2.40;;;22.30;67.10;;;;;;4960428;28;20038;-86
2021/07/09 00:48:38;;;;;;;6.10;2.90;;;22.30;67.40;;;;;;4960368;28;20030;-85
2021/07/09 00:51:10;;;;;;;3.42;2.90;;;22.20;67.90;;;;;;4960313;28;20378;-85
2021/07/09 00:53:37;;;;;;;5.75;2.97;;;22.30;68.40;;;;;;4959795;28;20121;-85
2021/07/09 00:56:04;;;;;;;2.63;2.42;;;22.20;68.50;;;;;;4960054;28;20062;-85
2021/07/09 00:58:29;;;;;;;3.45;2.72;;;22.20;68.20;;;;;;4977320;28;20093;-85
2021/07/09 01:00:57;;;;;;;4.90;2.92;;;22.30;68.30;;;;;;4977290;28;20494;-85
2021/07/09 01:03:22;;;;;;;2.72;2.47;;;22.30;68.30;;;;;;4959908;28;20022;-85
2021/07/09 01:05:49;;;;;;;4.07;2.58;;;22.30;68.20;;;;;;4977726;28;20037;-85
2021/07/09 01:08:14;;;;;;;2.90;2.42;;;22.30;68.10;;;;;;4977855;28;20446;-85
2021/07/09 01:10:42;;;;;;;2.92;2.53;;;22.30;68.20;;;;;;4960338;28;20031;-85
2021/07/09 01:13:08;;;;;;;2.97;2.67;;;22.40;68.20;;;;;;4959883;28;20035;-85
2021/07/09 01:15:34;;;;;;;2.90;2.60;;;22.40;68.40;;;;;;4977285;28;20032;-85
2021/07/09 01:18:00;;;;;;;2.88;2.67;;;22.40;68.30;;;;;;4977097;28;20031;-85
2021/07/09 01:20:26;;;;;;;3.50;2.95;;;22.40;68.40;;;;;;4977030;28;20038;-85
2021/07/09 01:22:52;;;;;;;2.50;2.30;;;22.30;68.50;;;;;;4960257;28;20034;-85
2021/07/09 01:25:24;;;;;;;2.70;2.50;;;22.30;68.40;;;;;;4959337;28;20031;-85
2021/07/09 01:27:53;;;;;;;2.97;2.50;;;22.30;68.60;;;;;;4959949;28;20470;-85
2021/07/09 01:30:21;;;;;;;2.35;2.15;;;22.30;68.70;;;;;;4959376;28;20070;-85
2021/07/09 01:32:49;;;;;;;2.60;2.38;;;22.20;68.80;;;;;;4959691;28;20035;-85
2021/07/09 01:35:16;;;;;;;1.98;1.88;;;22.20;69.40;;;;;;4960338;28;20081;-85
2021/07/09 01:37:42;;;;;;;3.08;2.70;;;22.20;69.40;;;;;;4959817;28;20410;-85
2021/07/09 01:40:11;;;;;;;2.53;2.33;;;22.20;69.60;;;;;;4959594;28;20031;-85
2021/07/09 01:42:38;;;;;;;2.40;2.20;;;22.10;69.60;;;;;;4943246;28;20126;-85
2021/07/09 01:45:06;;;;;;;3.70;3.38;;;22.10;69.60;;;;;;4959339;28;20118;-85
2021/07/09 01:47:31;;;;;;;2.70;2.40;;;22.10;70.10;;;;;;4959472;28;20059;-85
2021/07/09 01:50:00;;;;;;;3.03;2.83;;;22.10;70.40;;;;;;4959283;28;20061;-85
2021/07/09 01:52:27;;;;;;;2.72;2.53;;;22.10;70.70;;;;;;4959676;28;20039;-85
2021/07/09 01:54:54;;;;;;;3.15;2.85;;;22.10;70.90;;;;;;4976535;28;20359;-85
2021/07/09 01:57:20;;;;;;;2.90;2.70;;;22.10;71.30;;;;;;4959007;28;20034;-85
2021/07/09 01:59:46;;;;;;;3.90;2.63;;;22.10;71.30;;;;;;4976119;28;20105;-84
2021/07/09 02:02:13;;;;;;;3.33;2.63;;;22.10;71.20;;;;;;4958926;28;20118;-85
2021/07/09 02:04:53;;;;;;;2.78;2.35;;;22.10;71.30;;;;;;4976190;28;20553;-85
2021/07/09 02:07:20;;;;;;;3.78;2.55;;;22.10;71.90;;;;;;4958467;28;20073;-85
2021/07/09 02:09:49;;;;;;;3.33;3.03;;;22.00;72.00;;;;;;4987196;28;20038;-85
2021/07/09 02:12:17;;;;;;;2.83;2.53;;;22.10;72.40;;;;;;4969169;28;20027;-85
2021/07/09 02:14:43;;;;;;;4.03;2.95;;;22.10;72.70;;;;;;4984322;28;20033;-85
2021/07/09 02:17:11;;;;;;;3.05;2.50;;;22.10;72.90;;;;;;4963680;28;20034;-85
2021/07/09 02:19:38;;;;;;;4.60;3.10;;;22.10;73.50;;;;;;4965204;28;20031;-85
2021/07/09 02:22:07;;;;;;;3.60;3.30;;;22.10;73.80;;;;;;4958768;28;20085;-85
2021/07/09 02:24:34;;;;;;;4.35;3.10;;;22.10;73.70;;;;;;4958630;28;20081;-85
2021/07/09 02:27:00;;;;;;;2.85;2.60;;;22.10;73.50;;;;;;4975901;28;20027;-85
2021/07/09 02:29:26;;;;;;;3.38;2.88;;;22.10;73.00;;;;;;4975951;28;20058;-85
2021/07/09 02:31:53;;;;;;;2.67;2.47;;;22.10;72.90;;;;;;4958543;28;20447;-85
2021/07/09 02:34:19;;;;;;;3.33;2.85;;;22.10;72.70;;;;;;4975504;28;20023;-85
2021/07/09 02:36:44;;;;;;;3.10;2.80;;;22.10;72.50;;;;;;4958291;28;20031;-85
2021/07/09 02:39:11;;;;;;;3.40;2.90;;;22.20;72.40;;;;;;4958376;28;20023;-85
2021/07/09 02:41:37;;;;;;;3.13;2.58;;;22.20;72.30;;;;;;4975535;28;20035;-84
2021/07/09 02:44:04;;;;;;;3.92;2.88;;;22.20;72.10;;;;;;4958008;28;20038;-85
2021/07/09 02:46:30;;;;;;;2.78;2.58;;;22.30;72.10;;;;;;4958193;28;20035;-85
2021/07/09 02:48:55;;;;;;;3.10;2.55;;;22.30;71.90;;;;;;4958378;28;20037;-85
2021/07/09 02:51:21;;;;;;;2.80;2.60;;;22.30;71.80;;;;;;4958202;28;20034;-85
2021/07/09 02:53:47;;;;;;;3.58;3.15;;;22.40;71.80;;;;;;4957844;28;20027;-85
2021/07/09 02:56:12;;;;;;;3.17;2.63;;;22.40;72.00;;;;;;4958751;28;20081;-85
2021/07/09 02:58:38;;;;;;;4.35;2.92;;;22.40;71.80;;;;;;4958685;28;20027;-85
2021/07/09 03:01:04;;;;;;;6.55;2.83;;;22.40;71.90;;;;;;4958306;28;20458;-85
2021/07/09 03:03:29;;;;;;;4.30;2.78;;;22.40;71.70;;;;;;4958069;28;20049;-85
2021/07/09 03:05:55;;;;;;;3.05;2.65;;;22.50;71.80;;;;;;4975117;28;20023;-85
2021/07/09 03:08:21;;;;;;;6.50;2.80;;;22.50;71.70;;;;;;4957806;28;20367;-85
2021/07/09 03:10:46;;;;;;;3.65;2.78;;;22.60;71.60;;;;;;4958278;28;20045;-85
2021/07/09 03:13:12;;;;;;;3.33;2.78;;;22.70;71.50;;;;;;4957926;28;20023;-85
2021/07/09 03:15:38;;;;;;;5.43;2.80;;;22.80;71.30;;;;;;4957859;28;20046;-85
2021/07/09 03:18:04;;;;;;;3.10;2.80;;;22.80;71.10;;;;;;4974998;28;20029;-85
2021/07/09 03:20:29;;;;;;;4.40;3.03;;;22.90;71.00;;;;;;4957544;28;20022;-86
2021/07/09 03:22:55;;;;;;;3.42;3.10;;;22.90;70.90;;;;;;4975294;28;20039;-85
2021/07/09 03:25:21;;;;;;;4.07;3.28;;;23.00;70.80;;;;;;4958490;28;20049;-85
2021/07/09 03:27:46;;;;;;;2.85;2.55;;;23.00;70.60;;;;;;4958460;28;20034;-85
2021/07/09 03:30:13;;;;;;;3.42;2.67;;;23.10;70.60;;;;;;4958462;28;20058;-85
2021/07/09 03:32:39;;;;;;;3.42;2.83;;;23.10;70.50;;;;;;4958079;28;20034;-85
2021/07/09 03:35:06;;;;;;;6.95;2.97;;;23.20;70.40;;;;;;4957904;28;20023;-85
2021/07/09 03:37:32;;;;;;;3.28;2.88;;;23.20;70.40;;;;;;4957576;28;20105;-85
2021/07/09 03:39:58;;;;;;;4.15;2.75;;;23.30;70.40;;;;;;4957578;28;20457;-85
2021/07/09 03:42:23;;;;;;;3.00;2.70;;;23.40;70.20;;;;;;4958168;28;20035;-85
2021/07/09 03:44:49;;;;;;;3.03;2.72;;;23.40;70.20;;;;;;4958369;28;20474;-85
2021/07/09 03:47:15;;;;;;;5.30;2.95;;;23.40;70.20;;;;;;4957698;28;20077;-85
2021/07/09 03:49:41;;;;;;;4.45;3.22;;;23.40;70.20;;;;;;4957664;28;20027;-85
2021/07/09 03:52:06;;;;;;;3.00;2.70;;;23.40;70.20;;;;;;4957514;28;20478;-85
2021/07/09 03:54:33;;;;;;;3.35;2.80;;;23.50;70.20;;;;;;4957325;28;20106;-85
2021/07/09 03:56:59;;;;;;;3.17;2.90;;;23.60;70.20;;;;;;4957725;28;20355;-85
2021/07/09 03:59:24;;;;;;;2.83;2.60;;;23.60;70.10;;;;;;4957702;28;20034;-85
2021/07/09 04:01:50;;;;;;;2.83;2.60;;;23.70;70.00;;;;;;4957978;28;20047;-85
2021/07/09 04:04:16;;;;;;;5.28;2.80;;;23.70;69.90;;;;;;4957450;28;20453;-85
2021/07/09 04:06:41;;;;;;;3.92;2.88;;;23.80;69.90;;;;;;4957704;28;20033;-85
2021/07/09 04:09:07;;;;;;;2.60;2.40;;;24.00;69.60;;;;;;4960167;28;20090;-85
2021/07/09 04:11:32;;;;;;;6.72;2.83;;;24.10;69.40;;;;;;4961275;28;20053;-85
2021/07/09 04:13:58;;;;;;;3.53;2.97;;;24.20;69.10;;;;;;4959700;28;20041;-86
2021/07/09 04:16:24;;;;;;;3.88;3.30;;;24.40;68.90;;;;;;4961879;28;20077;-85
2021/07/09 04:18:49;;;;;;;2.90;2.63;;;24.50;68.60;;;;;;4961589;28;20030;-85
2021/07/09 04:21:15;;;;;;;3.15;2.83;;;24.60;68.30;;;;;;4956912;28;20031;-85
2021/07/09 04:23:40;;;;;;;3.25;2.85;;;24.70;68.00;;;;;;4956912;28;20026;-86
2021/07/09 04:26:06;;;;;;;3.30;3.00;;;24.70;67.70;;;;;;4957147;28;20033;-85
2021/07/09 04:28:32;;;;;;;3.03;2.72;;;24.70;67.60;;;;;;4957692;28;20118;-85
2021/07/09 04:30:58;;;;;;;3.38;2.80;;;24.80;67.20;;;;;;4960400;28;20051;-85
2021/07/09 04:33:23;;;;;;;3.50;3.20;;;24.90;66.90;;;;;;4960493;28;20027;-86
2021/07/09 04:35:50;;;;;;;2.88;2.58;;;25.00;66.60;;;;;;4960829;28;20122;-85
2021/07/09 04:38:17;;;;;;;3.55;2.80;;;25.10;66.30;;;;;;4961001;28;20434;-85
2021/07/09 04:40:42;;;;;;;4.60;2.83;;;25.20;66.10;;;;;;4960244;28;20027;-85
2021/07/09 04:43:08;;;;;;;3.28;2.97;;;25.30;66.00;;;;;;4977248;28;20062;-86
2021/07/09 04:45:34;;;;;;;3.17;2.70;;;25.40;65.70;;;;;;4977681;28;20030;-85
2021/07/09 04:47:59;;;;;;;5.13;2.95;;;25.40;65.30;;;;;;4960095;28;20026;-85
2021/07/09 04:50:26;;;;;;;6.10;3.25;;;25.30;65.10;;;;;;4977415;28;20415;-85
2021/07/09 04:52:51;;;;;;;3.10;2.80;;;25.30;65.00;;;;;;4959682;28;20384;-85
2021/07/09 04:55:17;;;;;;;3.85;2.95;;;25.20;65.10;;;;;;4959613;28;20118;-85
2021/07/09 04:57:43;;;;;;;3.20;2.90;;;25.30;65.20;;;;;;4960031;28;20358;-85
2021/07/09 05:00:09;;;;;;;3.80;2.85;;;25.30;64.90;;;;;;4959837;28;20381;-85
2021/07/09 05:02:38;;;;;;;3.28;2.90;;;25.40;64.70;;;;;;4959621;28;20049;-86
2021/07/09 05:05:09;;;;;;;3.97;3.40;;;25.50;64.50;;;;;;4959459;28;20421;-86
2021/07/09 05:07:35;;;;;;;3.47;3.17;;;25.50;64.10;;;;;;4959702;28;20478;-87
2021/07/09 05:10:02;;;;;;;3.38;3.08;;;25.50;63.90;;;;;;4960321;28;20027;-85
2021/07/09 05:12:27;;;;;;;4.03;3.08;;;25.50;63.90;;;;;;4959462;28;20035;-85
2021/07/09 05:14:53;;;;;;;3.30;2.97;;;25.60;63.80;;;;;;4960315;28;20029;-85
2021/07/09 05:17:19;;;;;;;5.70;3.70;;;25.70;63.60;;;;;;4959825;28;20033;-85
2021/07/09 05:19:45;;;;;;;6.25;2.78;;;25.70;63.50;;;;;;4959215;28;20484;-85
2021/07/09 05:22:11;;;;;;;5.47;3.65;;;25.70;63.60;;;;;;4959221;28;20094;-85
2021/07/09 05:24:38;;;;;;;3.15;2.85;;;25.80;63.50;;;;;;4959418;28;20038;-86
2021/07/09 05:27:05;;;;;;;3.47;2.90;;;25.90;63.50;;;;;;4959287;28;20412;-86
2021/07/09 05:29:30;;;;;;;3.05;2.67;;;26.00;63.50;;;;;;4959238;28;20355;-85
2021/07/09 05:31:56;;;;;;;3.35;3.05;;;26.10;63.20;;;;;;4959047;28;20131;-85
2021/07/09 05:34:22;;;;;;;3.58;3.25;;;26.20;62.90;;;;;;4958781;28;20037;-85
2021/07/09 05:36:48;;;;;;;5.43;4.15;;;26.20;62.70;;;;;;4959009;28;20034;-85
2021/07/09 05:39:15;;;;;;;3.72;2.97;;;26.20;62.70;;;;;;4959024;28;20034;-85
2021/07/09 05:41:44;;;;;;;3.25;2.95;;;26.20;62.60;;;;;;4959556;28;20035;-85
2021/07/09 05:44:11;;;;;;;3.58;3.28;;;26.20;62.50;;;;;;4960076;28;20121;-86
2021/07/09 05:46:37;;;;;;;2.90;2.70;;;26.20;61.90;;;;;;4960149;28;20023;-86
2021/07/09 05:49:03;;;;;;;3.95;3.55;;;26.30;62.00;;;;;;4975994;28;20019;-86
2021/07/09 05:51:28;;;;;;;9.20;3.50;;;26.40;61.90;;;;;;4959753;28;20046;-86
2021/07/09 05:53:57;;;;;;;4.07;3.67;;;26.40;61.80;;;;;;4958673;28;20023;-86
2021/07/09 05:56:23;;;;;;;4.75;3.60;;;26.40;61.50;;;;;;4958857;28;20027;-85
2021/07/09 05:58:48;;;;;;;4.40;3.40;;;26.40;61.40;;;;;;4976216;28;20134;-86
2021/07/09 06:01:14;;;;;;;3.55;3.25;;;26.40;61.30;;;;;;4958517;28;20371;-86
2021/07/09 06:03:40;;;;;;;3.53;3.22;;;26.40;61.10;;;;;;4975890;28;20463;-86
2021/07/09 06:06:05;;;;;;;3.60;3.20;;;26.40;61.20;;;;;;4976355;28;20027;-85
2021/07/09 06:08:31;;;;;;;3.30;2.88;;;26.50;61.40;;;;;;4958620;28;20130;-85
2021/07/09 06:11:01;;;;;;;3.10;2.75;;;26.60;61.10;;;;;;4960906;28;20161;-86
2021/07/09 06:13:30;;;;;;;3.95;3.28;;;26.70;60.80;;;;;;4959031;28;20363;-85
2021/07/09 06:15:56;;;;;;;4.00;3.60;;;26.70;60.20;;;;;;4958464;28;20030;-86
2021/07/09 06:18:22;;;;;;;3.90;3.40;;;26.70;60.00;;;;;;4959540;28;20430;-85
2021/07/09 06:20:48;;;;;;;3.83;3.20;;;26.60;60.00;;;;;;4979291;28;20031;-85
2021/07/09 06:23:16;;;;;;;3.30;3.00;;;26.60;60.40;;;;;;4963204;28;20478;-85
2021/07/09 06:25:42;;;;;;;4.85;3.22;;;26.50;60.10;;;;;;4967054;28;20047;-86
2021/07/09 06:28:10;;;;;;;3.50;3.20;;;26.60;60.10;;;;;;4964003;28;20386;-85
2021/07/09 06:30:36;;;;;;;4.47;3.30;;;26.60;59.90;;;;;;4960861;28;20058;-86
2021/07/09 06:33:07;;;;;;;4.47;3.63;;;26.60;59.50;;;;;;4979250;28;20037;-85
2021/07/09 06:35:33;;;;;;;6.45;3.35;;;26.60;59.60;;;;;;4961149;28;20031;-86
2021/07/09 06:37:59;;;;;;;4.47;3.60;;;26.60;59.90;;;;;;4977522;28;20042;-85
2021/07/09 06:40:25;;;;;;;4.38;3.97;;;26.70;59.60;;;;;;4954722;28;20034;-86
2021/07/09 06:42:52;;;;;;;5.20;3.60;;;26.70;59.40;;;;;;4938389;29;20031;-86
2021/07/09 06:45:20;;;;;;;3.53;3.22;;;26.70;59.80;;;;;;4938571;29;20065;-86
2021/07/09 06:47:46;;;;;;;4.30;3.65;;;26.70;59.10;;;;;;4948978;28;20104;-85
2021/07/09 06:50:13;;;;;;;5.82;3.53;;;26.80;58.70;;;;;;4974798;28;20027;-85
2021/07/09 06:52:41;;;;;;;3.63;3.33;;;26.90;58.40;;;;;;4952907;28;20027;-85
2021/07/09 06:55:07;;;;;;;4.53;3.17;;;26.90;58.10;;;;;;4957865;28;20027;-86
2021/07/09 06:57:38;;;;;;;4.43;3.53;;;27.00;57.40;;;;;;4957261;28;20425;-86
2021/07/09 07:00:06;;;;;;;4.45;3.60;;;27.00;57.00;;;;;;4957900;28;20062;-86
2021/07/09 07:02:32;;;;;;;3.25;2.80;;;27.10;56.80;;;;;;4957534;28;20042;-86
2021/07/09 07:05:00;;;;;;;3.38;3.08;;;27.20;56.40;;;;;;4939039;29;20091;-86
2021/07/09 07:07:26;;;;;;;3.35;2.97;;;27.40;56.30;;;;;;4944579;28;20033;-87
2021/07/09 07:09:51;;;;;;;3.10;2.85;;;27.60;55.60;;;;;;4975877;28;20031;-86
2021/07/09 07:12:17;;;;;;;3.90;3.53;;;27.70;54.80;;;;;;4958481;28;20109;-87
2021/07/09 07:14:43;;;;;;;5.38;3.58;;;27.80;54.60;;;;;;4956416;28;20034;-88
2021/07/09 07:17:09;;;;;;;4.03;3.15;;;27.90;54.40;;;;;;4972701;28;20043;-88
2021/07/09 07:19:35;;;;;;;3.92;3.53;;;28.00;54.20;;;;;;4955538;28;20542;-89
2021/07/09 07:22:02;;;;;;;4.10;3.78;;;28.10;53.90;;;;;;4956824;28;20046;-89
2021/07/09 07:24:31;;;;;;;3.72;3.42;;;28.10;53.70;;;;;;4968369;28;20022;-88
2021/07/09 07:26:58;;;;;;;4.15;3.75;;;28.20;53.70;;;;;;4957117;28;20075;-89
2021/07/09 07:29:24;;;;;;;3.97;3.65;;;28.20;53.60;;;;;;4974415;28;20458;-88
2021/07/09 07:31:58;;;;;;;5.57;3.50;;;28.20;53.70;;;;;;4957608;28;20055;-90
2021/07/09 07:34:24;;;;;;;4.05;3.65;;;28.20;53.70;;;;;;4954178;28;20038;-88
2021/07/09 07:36:51;;;;;;;5.82;4.35;;;28.30;53.30;;;;;;4956800;28;20392;-88
2021/07/09 07:39:17;;;;;;;5.22;4.30;;;28.20;53.30;;;;;;4972977;28;20069;-88
2021/07/09 07:41:43;;;;;;;4.45;3.78;;;28.20;53.10;;;;;;4957015;28;20405;-88
2021/07/09 07:44:09;;;;;;;5.20;4.28;;;28.30;53.40;;;;;;4956809;28;20054;-88
2021/07/09 07:46:36;;;;;;;4.60;4.20;;;28.30;53.20;;;;;;4953429;29;20032;-89
2021/07/09 07:49:02;;;;;;;4.90;4.43;;;28.40;53.60;;;;;;4952131;28;20027;-88
2021/07/09 07:51:28;;;;;;;5.53;4.22;;;28.50;53.10;;;;;;4962404;28;20065;-88
2021/07/09 07:53:54;;;;;;;4.25;3.85;;;28.50;53.10;;;;;;4957803;28;20031;-90
2021/07/09 07:56:22;;;;;;;4.38;3.97;;;28.60;53.10;;;;;;4959799;28;20023;-89
2021/07/09 07:58:53;;;;;;;4.78;4.18;;;28.60;53.00;;;;;;4959483;28;20466;-90
2021/07/09 08:01:36;;;;;;;5.72;3.90;;;28.60;52.50;;;;;;4974697;28;20038;-88
2021/07/09 08:04:02;;;;;;;3.95;3.45;;;28.70;53.00;;;;;;4956989;28;20418;-89
2021/07/09 08:06:29;;;;;;;3.53;3.08;;;28.70;52.70;;;;;;4977960;28;20034;-90
2021/07/09 08:08:56;;;;;;;3.80;3.35;;;28.80;52.50;;;;;;4976010;28;20027;-89
2021/07/09 08:11:23;;;;;;;4.20;3.80;;;28.90;52.30;;;;;;4977360;28;20042;-89
2021/07/09 08:13:50;;;;;;;4.25;3.85;;;28.90;51.90;;;;;;4944666;28;20034;-89
2021/07/09 08:16:16;;;;;;;5.07;4.28;;;28.90;52.00;;;;;;4959555;28;20037;-88
2021/07/09 08:18:42;;;;;;;4.15;3.75;;;28.90;51.80;;;;;;4963561;28;20027;-87
2021/07/09 08:21:08;;;;;;;4.57;4.13;;;28.90;52.00;;;;;;4977416;28;20060;-87
2021/07/09 08:23:34;;;;;;;3.38;3.08;;;29.00;51.60;;;;;;4960656;28;20023;-89
2021/07/09 08:26:01;;;;;;;4.10;3.70;;;29.00;51.60;;;;;;4966290;28;20445;-88
2021/07/09 08:28:27;;;;;;;5.38;4.00;;;29.00;51.20;;;;;;4982410;28;20087;-88
2021/07/09 08:30:53;;;;;;;4.10;3.55;;;28.90;51.10;;;;;;4960858;28;20054;-87
2021/07/09 08:33:21;;;;;;;4.88;3.72;;;29.00;51.60;;;;;;4985027;28;20446;-86
2021/07/09 08:35:47;;;;;;;4.45;3.35;;;29.20;51.60;;;;;;4966141;28;20049;-87
2021/07/09 08:38:13;;;;;;;3.67;3.35;;;29.40;51.50;;;;;;4987280;28;20035;-87
2021/07/09 08:40:39;;;;;;;3.75;3.22;;;29.60;51.10;;;;;;4950797;28;20037;-86
2021/07/09 08:43:05;;;;;;;4.20;3.60;;;29.70;51.10;;;;;;4965102;28;20035;-88
2021/07/09 08:45:31;;;;;;;3.70;3.05;;;29.90;50.80;;;;;;4977414;28;20022;-87
2021/07/09 08:47:57;;;;;;;4.13;3.70;;;29.90;50.20;;;;;;4961697;28;20031;-87
2021/07/09 08:50:24;;;;;;;3.72;3.42;;;29.90;49.40;;;;;;4979303;28;20536;-88
2021/07/09 08:52:52;;;;;;;4.13;3.40;;;29.90;50.10;;;;;;4962868;28;20034;-88
2021/07/09 08:55:19;;;;;;;5.38;3.70;;;29.90;49.60;;;;;;4961815;28;20146;-88
2021/07/09 08:57:47;;;;;;;3.78;3.30;;;30.00;49.30;;;;;;4961827;28;20023;-87
2021/07/09 09:00:21;;;;;;;4.20;3.40;;;30.00;48.90;;;;;;4964726;28;20022;-88
2021/07/09 09:02:48;;;;;;;3.50;3.20;;;30.00;48.70;;;;;;4977342;28;20034;-87
2021/07/09 09:05:25;;;;;;;4.00;3.65;;;29.90;48.20;;;;;;4960352;28;20030;-88
2021/07/09 09:08:11;;;;;;;3.80;3.50;;;29.80;47.10;;;;;;4960181;28;20034;-88
2021/07/09 09:10:45;;;;;;;5.10;4.13;;;29.70;47.40;;;;;;4978108;28;20047;-88
2021/07/09 09:13:19;;;;;;;4.70;3.70;;;29.60;47.80;;;;;;4961546;28;20508;-88
2021/07/09 09:16:01;;;;;;;3.70;3.40;;;29.60;48.20;;;;;;4959348;28;20125;-88
2021/07/09 09:18:30;;;;;;;5.97;4.18;;;29.70;48.20;;;;;;4959577;29;20023;-88
2021/07/09 09:21:11;;;;;;;3.67;3.15;;;29.90;48.40;;;;;;4960187;28;20026;-88
2021/07/09 09:23:52;;;;;;;3.60;3.30;;;30.10;48.10;;;;;;4965310;28;20089;-88
2021/07/09 09:26:56;;;;;;;4.43;3.10;;;30.30;47.50;;;;;;4974377;28;20375;-88
2021/07/09 09:29:25;;;;;;;3.80;3.40;;;30.50;47.20;;;;;;4975024;28;20034;-89
2021/07/09 09:32:03;;;;;;;5.15;3.72;;;30.60;46.80;;;;;;4960872;28;20046;-89
2021/07/09 09:34:39;;;;;;;3.45;3.15;;;30.70;46.80;;;;;;4962911;28;20107;-88
2021/07/09 09:37:06;;;;;;;3.85;3.35;;;30.80;46.70;;;;;;4960962;28;20485;-89
2021/07/09 09:39:32;;;;;;;3.95;3.55;;;30.90;46.80;;;;;;4963104;28;20063;-90
2021/07/09 09:42:23;;;;;;;3.58;3.28;;;31.00;46.80;;;;;;4961047;28;20066;-89
2021/07/09 09:45:03;;;;;;;3.83;3.28;;;31.00;46.20;;;;;;4960329;28;20389;-89
2021/07/09 09:47:35;;;;;;;4.43;3.33;;;31.10;46.50;;;;;;4959215;28;20101;-87
2021/07/09 09:50:09;;;;;;;3.47;3.17;;;31.20;46.20;;;;;;4959372;28;20506;-87
2021/07/09 09:52:40;;;;;;;3.63;3.17;;;31.20;46.30;;;;;;4954773;28;20435;-88
2021/07/09 09:55:13;;;;;;;4.68;3.20;;;31.30;45.80;;;;;;4964935;28;20065;-87
2021/07/09 09:57:40;;;;;;;3.25;2.97;;;31.30;45.70;;;;;;4960944;28;20037;-88
2021/07/09 10:00:10;;;;;;;4.75;3.42;;;31.30;45.40;;;;;;4959886;28;20034;-87
2021/07/09 10:02:36;;;;;;;3.53;3.22;;;31.30;44.70;;;;;;4959102;28;20058;-87
2021/07/09 10:05:05;;;;;;;3.47;3.17;;;31.10;44.20;;;;;;4958797;28;20031;-87
2021/07/09 10:07:36;;;;;;;4.40;4.00;;;31.10;44.50;;;;;;4957562;28;20101;-88
2021/07/09 10:10:09;;;;;;;4.13;3.60;;;30.90;43.60;;;;;;4956073;28;20461;-88
2021/07/09 10:12:37;;;;;;;4.57;3.63;;;30.80;44.50;;;;;;4958111;28;20106;-87
2021/07/09 10:15:03;;;;;;;4.25;3.85;;;30.90;44.80;;;;;;4962603;28;20039;-92
2021/07/09 10:17:33;;;;;;;5.88;3.70;;;30.90;44.50;;;;;;4960594;28;20022;-92
2021/07/09 10:20:00;;;;;;;4.35;3.78;;;31.00;44.20;;;;;;4963820;28;20031;-92
2021/07/09 10:22:26;;;;;;;7.60;3.45;;;31.10;43.90;;;;;;4962624;28;20034;-91
2021/07/09 10:25:13;;;;;;;3.72;3.42;;;31.00;43.30;;;;;;4967580;28;20023;-94
2021/07/09 10:27:42;;;;;;;3.97;3.67;;;31.10;43.80;;;;;;4971514;28;20038;-94
2021/07/09 10:30:10;;;;;;;3.65;3.35;;;31.10;44.20;;;;;;4975040;28;20054;-95
2021/07/09 10:32:44;;;;;;;3.60;2.90;;;31.20;44.30;;;;;;4985947;28;20039;-93
2021/07/09 10:35:31;;;;;;;4.07;3.42;;;31.30;44.00;;;;;;4970844;28;20081;-93
2021/07/09 10:38:17;;;;;;;3.60;3.30;;;31.40;43.80;;;;;;4952968;28;20077;-94
2021/07/09 10:40:44;;;;;;;5.13;3.92;;;31.40;43.60;;;;;;4961416;28;20030;-95
2021/07/09 10:43:13;;;;;;;3.42;3.13;;;31.40;43.60;;;;;;4972412;28;20047;-94
2021/07/09 10:45:45;;;;;;;3.40;3.08;;;31.50;43.60;;;;;;4997988;28;20031;-94
2021/07/09 10:48:16;;;;;;;5.22;3.70;;;31.60;43.30;;;;;;4962837;28;20103;-94
2021/07/09 10:50:51;;;;;;;4.05;3.58;;;31.60;42.90;;;;;;4964084;28;20035;-94
2021/07/09 10:53:25;;;;;;;4.82;3.65;;;31.50;42.90;;;;;;4961778;29;20042;-94
2021/07/09 10:56:08;;;;;;;4.10;3.58;;;31.50;42.90;;;;;;4942496;29;20074;-94
2021/07/09 10:58:41;;;;;;;4.13;3.72;;;31.50;42.70;;;;;;4959459;28;20031;-95
2021/07/09 11:01:26;;;;;;;4.13;3.72;;;31.60;42.80;;;;;;4970557;28;20118;-95
2021/07/09 11:03:56;;;;;;;4.25;3.80;;;31.60;42.10;;;;;;4963260;28;20051;-95
2021/07/09 11:06:36;;;;;;;7.72;3.65;;;31.50;42.40;;;;;;4975674;28;20046;-95
2021/07/09 11:09:12;;;;;;;4.13;3.72;;;31.50;43.00;;;;;;4973021;28;20058;-96
2021/07/09 11:11:52;;;;;;;4.00;3.60;;;31.40;42.50;;;;;;4973494;28;20027;-94
2021/07/09 11:14:35;;;;;;;3.97;3.55;;;31.40;42.80;;;;;;4966280;28;20129;-94
2021/07/09 11:17:17;;;;;;;4.00;3.60;;;31.40;42.50;;;;;;4959626;28;20090;-96
2021/07/09 11:19:47;;;;;;;4.20;3.55;;;31.40;43.00;;;;;;4982419;28;20011;-95
2021/07/09 11:22:20;;;;;;;3.53;3.22;;;31.40;43.10;;;;;;4969783;28;20037;-96
2021/07/09 11:24:53;;;;;;;5.18;3.78;;;31.40;43.10;;;;;;4971285;28;20122;-95
2021/07/09 11:27:27;;;;;;;3.65;3.35;;;31.50;42.90;;;;;;4969461;28;20463;-96
2021/07/09 11:29:59;;;;;;;4.72;4.13;;;31.50;43.00;;;;;;4955755;28;20047;-96
2021/07/09 11:32:46;;;;;;;3.87;3.50;;;31.50;43.10;;;;;;4986310;28;20047;-95
2021/07/09 11:38:36;;;;;;;4.97;3.63;;;31.60;43.30;;;;;;5071766;23;20083;-96
2021/07/09 11:41:10;;;;;;;4.10;3.70;;;31.70;43.20;;;;;;5038845;23;20051;-93
2021/07/09 11:43:47;;;;;;;3.50;3.13;;;31.80;43.50;;;;;;4966871;28;20079;-94
2021/07/09 11:46:15;;;;;;;4.22;3.75;;;31.80;43.50;;;;;;4941427;28;20112;-95
2021/07/09 11:48:41;;;;;;;4.53;4.13;;;31.90;43.50;;;;;;4971525;29;20036;-95
2021/07/09 11:51:12;;;;;;;3.90;3.60;;;31.90;43.40;;;;;;4960379;28;20019;-95
2021/07/09 11:53:45;;;;;;;4.38;4.00;;;31.90;43.40;;;;;;4930190;29;20087;-95
2021/07/09 11:56:18;;;;;;;4.00;3.60;;;31.90;43.60;;;;;;4965431;29;20037;-96
2021/07/09 11:59:01;;;;;;;;;;;;;;;;;;;;;
2021/07/09 12:01:30;;;;;;;4.03;3.63;;;32.10;44.10;;;;;;5428057;23;20119;-95
2021/07/09 12:03:59;;;;;;;4.78;4.28;;;32.20;43.20;;;;;;4965825;28;20098;-92
2021/07/09 12:06:25;;;;;;;6.07;4.60;;;32.20;42.90;;;;;;4956015;29;20035;-96
2021/07/09 12:09:00;;;;;;;5.10;4.03;;;32.20;43.10;;;;;;4973029;28;20050;-94
2021/07/09 12:11:26;;;;;;;4.75;3.67;;;32.20;43.20;;;;;;4956871;29;20042;-93
2021/07/09 12:14:05;;;;;;;5.53;3.65;;;32.30;43.50;;;;;;4971296;28;20028;-93
2021/07/09 12:16:32;;;;;;;5.20;3.80;;;32.60;43.00;;;;;;4981192;28;20062;-95
2021/07/09 12:18:58;;;;;;;6.28;3.80;;;32.90;43.40;;;;;;4978852;28;20019;-95
2021/07/09 12:21:32;;;;;;;5.47;3.22;;;33.30;43.50;;;;;;4974811;28;20032;-96
2021/07/09 12:24:05;;;;;;;6.47;3.95;;;33.70;43.10;;;;;;4980618;28;20109;-93
2021/07/09 12:26:31;;;;;;;;;;;34.00;42.50;;;;;;4959536;28;20132;-94
2021/07/09 12:28:59;;;;;;;4.60;4.20;;;34.20;42.80;;;;;;4952644;28;19910;-96
2021/07/09 12:31:25;;;;;;;3.78;3.47;;;34.60;42.90;;;;;;4953898;29;20023;-95
2021/07/09 12:33:55;;;;;;;5.05;3.80;;;35.10;42.70;;;;;;4961889;28;20034;-96
2021/07/09 12:36:27;;;;;;;3.78;3.45;;;35.60;42.10;;;;;;4966159;28;20042;-96
2021/07/09 12:39:06;;;;;;;3.47;3.17;;;36.10;41.50;;;;;;4956677;29;20038;-95
2021/07/09 12:42:06;;;;;;;3.92;3.53;;;36.60;41.50;;;;;;4951333;29;20032;-95
2021/07/09 12:45:05;;;;;;;4.22;3.50;;;37.10;40.50;;;;;;4944052;29;20032;-95
2021/07/09 12:47:34;;;;;;;3.38;3.08;;;37.40;40.10;;;;;;4961512;29;20091;-96
2021/07/09 12:50:30;;;;;;;10.48;3.58;;;37.60;40.30;;;;;;4952190;29;20023;-95
2021/07/09 12:52:56;;;;;;;3.78;3.47;;;38.10;36.10;;;;;;4950886;29;20058;-94
2021/07/09 12:55:42;;;;;;;3.85;3.55;;;38.20;39.10;;;;;;4963887;28;20024;-95
2021/07/09 12:58:10;;;;;;;4.88;3.42;;;38.50;38.50;;;;;;4957860;29;20039;-95
2021/07/09 13:11:11;;;;;;;3.97;3.60;;;38.70;34.50;;;;;;4872013;29;20036;-93